Donalds, South Carolina
Current Conditions -  °F | °C
As of 7:56 PM on Friday 28 Nov 2014 (Local Time) from KGRD Reporting Station
Clear Clear  
Wind Chill:   Ceiling: Unl
Heat Index:   Visibility: 10mi
Dew Point: -4°   Wind: 0mph
Humidity: 70%   Direction: NA
Pressure: 30.32"   Gusts: NA
Location:  34.38°N, 82.35°W
Report Text: KGRD 290056Z AUTO 00000KT 10SM CLR 01/M04 A3032 RMK AO2 SLP272 T00111039
Loading
Personal Weather Stations






























Interactive Weather Map New forecast layout! Learn more

10-Day Weather Forecast

Advertisements
Track Severe Weather on mobile